Time;durP1;ratioP1;P1;durP2;ratioP2;P2;SDS_P1;SDS_P2;PMS_P1;PMS_P2;Temp;Humidity;BMP_temperature;BMP_pressure;BME280_temperature;BME280_humidity;BME280_pressure;Samples;Min_cycle;Max_cycle;Signal;HPM_P1;HPM_P2
2024/03/08 00:00:12;;;;;;;35.97;23.67;;;1.80;99.90;;;;;;7374534;19;20753;-65
2024/03/08 00:02:39;;;;;;;35.88;22.77;;;1.80;99.90;;;;;;7368605;19;20135;-66
2024/03/08 00:05:08;;;;;;;33.58;23.27;;;1.70;99.90;;;;;;7370108;19;20022;-66
2024/03/08 00:07:35;;;;;;;36.90;24.60;;;1.70;99.90;;;;;;7365936;19;20141;-66
2024/03/08 00:10:07;;;;;;;40.60;25.88;;;1.70;99.90;;;;;;7370883;19;20019;-65
2024/03/08 00:12:33;;;;;;;;;;;1.70;99.90;;;;;;7366250;19;20023;-67
2024/03/08 00:15:00;;;;;;;37.60;23.77;;;1.70;99.90;;;;;;7370353;19;20267;-66
2024/03/08 00:17:27;;;;;;;41.80;27.33;;;1.60;99.90;;;;;;7367884;19;20074;-66
2024/03/08 00:19:53;;;;;;;39.03;25.85;;;1.60;99.90;;;;;;7371593;19;20877;-66
2024/03/08 00:22:19;;;;;;;40.33;26.73;;;1.60;99.90;;;;;;7371063;19;20053;-65
2024/03/08 00:24:45;;;;;;;40.95;27.40;;;1.60;99.90;;;;;;7366014;19;20038;-66
2024/03/08 00:27:11;;;;;;;38.63;27.17;;;1.50;99.90;;;;;;7367994;19;20023;-65
2024/03/08 00:29:40;;;;;;;40.38;28.35;;;1.50;99.90;;;;;;7364783;19;20022;-66
2024/03/08 00:32:10;;;;;;;42.47;29.80;;;1.50;99.90;;;;;;7366690;19;20042;-66
2024/03/08 00:34:37;;;;;;;38.85;26.85;;;1.50;99.90;;;;;;7369724;19;20018;-65
2024/03/08 00:37:04;;;;;;;38.08;27.40;;;1.40;99.90;;;;;;7361706;19;20018;-66
2024/03/08 00:39:30;;;;;;;48.28;29.38;;;1.50;99.90;;;;;;7367913;19;20056;-67
2024/03/08 00:41:59;;;;;;;41.30;28.20;;;1.40;99.90;;;;;;7373839;19;20015;-68
2024/03/08 00:44:25;;;;;;;45.45;28.80;;;1.40;99.90;;;;;;7367533;19;20098;-66
2024/03/08 00:46:51;;;;;;;46.53;29.23;;;1.40;99.90;;;;;;7368320;19;20098;-66
2024/03/08 00:49:18;;;;;;;40.13;27.33;;;1.40;99.90;;;;;;7369086;19;20047;-65
2024/03/08 00:51:44;;;;;;;40.45;25.67;;;1.30;99.90;;;;;;7371163;19;20074;-65
2024/03/08 00:54:10;;;;;;;42.60;28.35;;;1.30;99.90;;;;;;7364116;19;20528;-66
2024/03/08 00:56:39;;;;;;;44.40;28.88;;;1.30;99.90;;;;;;7366624;19;20015;-66
2024/03/08 00:59:07;;;;;;;42.83;27.70;;;1.30;99.90;;;;;;7366549;19;20021;-67
2024/03/08 01:01:33;;;;;;;43.78;30.33;;;1.30;99.90;;;;;;7366252;19;20022;-66
2024/03/08 01:04:01;;;;;;;40.67;28.40;;;1.30;99.90;;;;;;7367423;19;20022;-67
2024/03/08 01:06:28;;;;;;;51.13;30.40;;;1.30;99.90;;;;;;7367083;19;20018;-65
2024/03/08 01:08:54;;;;;;;46.45;29.67;;;1.20;99.90;;;;;;7367400;19;20848;-65
2024/03/08 01:11:20;;;;;;;40.53;27.73;;;1.30;99.90;;;;;;7368248;19;20029;-66
2024/03/08 01:13:47;;;;;;;48.47;31.30;;;1.20;99.90;;;;;;7365886;19;20479;-66
2024/03/08 01:16:13;;;;;;;46.28;31.15;;;1.20;99.90;;;;;;7367764;19;20018;-66
2024/03/08 01:18:39;;;;;;;43.45;28.02;;;1.20;99.90;;;;;;7369418;19;21167;-66
2024/03/08 01:21:06;;;;;;;43.25;29.98;;;1.20;99.90;;;;;;7366277;19;20278;-68
2024/03/08 01:23:32;;;;;;;47.67;30.75;;;1.20;99.90;;;;;;7365759;19;20102;-66
2024/03/08 01:25:58;;;;;;;46.00;29.85;;;1.20;99.90;;;;;;7365814;19;20026;-66
2024/03/08 01:28:25;;;;;;;44.92;28.80;;;1.20;99.90;;;;;;7363709;19;20033;-66
2024/03/08 01:30:55;;;;;;;45.53;29.90;;;1.20;99.90;;;;;;7365143;19;20037;-66
2024/03/08 01:33:25;;;;;;;45.67;30.75;;;1.20;99.90;;;;;;7364530;19;20019;-66
2024/03/08 01:35:54;;;;;;;37.17;25.42;;;1.10;99.90;;;;;;7365145;19;20019;-66
2024/03/08 01:38:21;;;;;;;41.58;24.77;;;1.10;99.90;;;;;;7369900;19;20072;-66
2024/03/08 01:40:48;;;;;;;45.28;30.13;;;1.20;99.90;;;;;;7363648;19;20022;-66
2024/03/08 01:43:31;;;;;;;43.45;28.73;;;1.10;99.90;;;;;;7371450;19;20085;-66
2024/03/08 01:45:59;;;;;;;43.65;29.60;;;1.10;99.90;;;;;;7361082;19;20081;-66
2024/03/08 01:48:27;;;;;;;44.05;27.92;;;1.10;99.90;;;;;;7363064;19;20029;-66
2024/03/08 01:50:55;;;;;;;44.20;28.63;;;1.10;99.90;;;;;;7365931;19;20501;-66
2024/03/08 01:53:22;;;;;;;46.78;29.63;;;1.10;99.90;;;;;;7363692;19;20022;-66
2024/03/08 01:55:49;;;;;;;41.95;28.88;;;1.10;99.90;;;;;;7366941;19;20006;-65
2024/03/08 01:58:16;;;;;;;45.15;28.98;;;1.10;99.90;;;;;;7366694;19;20026;-66
2024/03/08 02:00:46;;;;;;;47.75;28.55;;;1.10;99.90;;;;;;7362038;19;20451;-67
2024/03/08 02:03:12;;;;;;;43.65;31.65;;;1.00;99.90;;;;;;7361329;19;20090;-65
2024/03/08 02:05:40;;;;;;;45.55;30.13;;;1.10;99.90;;;;;;7363892;19;20014;-66
2024/03/08 02:08:12;;;;;;;46.90;29.38;;;1.00;99.90;;;;;;7369792;19;20014;-66
2024/03/08 02:10:39;;;;;;;45.40;29.55;;;1.00;99.90;;;;;;7365222;19;20022;-66
2024/03/08 02:13:06;;;;;;;42.30;28.00;;;1.00;99.90;;;;;;7367454;19;20098;-65
2024/03/08 02:15:50;;;;;;;43.10;28.73;;;1.00;99.90;;;;;;7363148;19;20014;-66
2024/03/08 02:18:20;;;;;;;41.83;27.02;;;1.00;99.90;;;;;;7371524;19;20479;-67
2024/03/08 02:20:54;;;;;;;44.60;28.88;;;1.00;99.90;;;;;;7366739;19;20018;-66
2024/03/08 02:23:21;;;;;;;39.85;26.80;;;1.00;99.90;;;;;;7369972;19;20787;-67
2024/03/08 02:25:49;;;;;;;41.97;28.08;;;1.00;99.90;;;;;;7373536;19;20014;-67
2024/03/08 02:28:15;;;;;;;39.80;28.38;;;1.00;99.90;;;;;;7376938;19;20022;-67
2024/03/08 02:30:41;;;;;;;44.20;27.65;;;0.90;99.90;;;;;;7370788;19;20025;-66
2024/03/08 02:33:10;;;;;;;43.88;27.23;;;0.90;99.90;;;;;;7374038;19;20049;-66
2024/03/08 02:35:37;;;;;;;44.10;29.20;;;1.00;99.90;;;;;;7369219;19;20037;-65
2024/03/08 02:38:06;;;;;;;40.35;27.52;;;1.00;99.90;;;;;;7373973;19;20015;-66
2024/03/08 02:40:32;;;;;;;42.72;29.73;;;1.00;99.90;;;;;;7361927;19;20031;-65
2024/03/08 02:42:59;;;;;;;39.47;28.73;;;1.00;99.90;;;;;;7373141;19;20022;-66
2024/03/08 02:45:25;;;;;;;40.85;26.08;;;1.00;99.90;;;;;;7365058;19;20019;-66
2024/03/08 02:47:51;;;;;;;44.53;28.25;;;1.00;99.90;;;;;;7371360;19;20018;-66
2024/03/08 02:50:22;;;;;;;40.75;27.77;;;1.00;99.90;;;;;;7367633;19;20015;-66
2024/03/08 02:52:48;;;;;;;40.60;27.58;;;1.00;99.90;;;;;;7366942;19;20019;-67
2024/03/08 02:55:17;;;;;;;45.55;29.27;;;1.00;99.90;;;;;;7375497;19;20110;-66
2024/03/08 02:57:44;;;;;;;39.92;28.35;;;1.00;99.90;;;;;;7370964;19;20026;-66
2024/03/08 03:00:10;;;;;;;42.30;27.55;;;1.00;99.90;;;;;;7372014;19;20023;-66
2024/03/08 03:02:37;;;;;;;44.58;28.90;;;0.90;99.90;;;;;;7372903;19;20015;-67
2024/03/08 03:05:06;;;;;;;40.97;27.92;;;0.90;99.90;;;;;;7372317;19;20022;-66
2024/03/08 03:07:35;;;;;;;30.65;19.73;;;0.90;99.90;;;;;;7374985;19;20069;-66
2024/03/08 03:10:03;;;;;;;41.47;26.77;;;0.90;99.90;;;;;;7373205;19;20840;-66
2024/03/08 03:12:31;;;;;;;39.95;27.83;;;1.00;99.90;;;;;;7370722;19;20027;-66
2024/03/08 03:14:58;;;;;;;33.03;22.40;;;0.90;99.90;;;;;;7376452;19;20036;-66
2024/03/08 03:17:24;;;;;;;40.58;26.73;;;1.00;99.90;;;;;;7375769;19;20021;-65
2024/03/08 03:19:51;;;;;;;37.50;27.17;;;1.00;99.90;;;;;;7373900;19;20686;-65
2024/03/08 03:22:19;;;;;;;38.83;26.70;;;1.00;99.90;;;;;;7372126;19;20034;-68
2024/03/08 03:24:49;;;;;;;38.15;26.15;;;1.00;99.90;;;;;;7362828;19;20018;-66
2024/03/08 03:27:15;;;;;;;36.05;24.63;;;1.00;99.90;;;;;;7368999;19;20274;-66
2024/03/08 03:29:45;;;;;;;39.80;26.30;;;1.00;99.90;;;;;;7373081;19;20015;-67
2024/03/08 03:32:13;;;;;;;42.50;27.13;;;1.00;99.90;;;;;;7369787;19;20090;-67
2024/03/08 03:34:40;;;;;;;38.83;25.30;;;0.90;99.90;;;;;;7372526;19;20412;-66
2024/03/08 03:37:08;;;;;;;40.97;28.92;;;0.90;99.90;;;;;;7369365;19;20010;-66
2024/03/08 03:39:40;;;;;;;40.88;28.38;;;0.90;99.90;;;;;;7371854;19;20138;-66
2024/03/08 03:42:06;;;;;;;;;;;0.90;99.90;;;;;;7371468;19;20018;-67
2024/03/08 03:44:32;;;;;;;39.72;26.90;;;0.90;99.90;;;;;;7372653;19;19922;-66
2024/03/08 03:46:59;;;;;;;40.67;25.92;;;0.80;99.90;;;;;;7375455;19;20019;-66
2024/03/08 03:49:25;;;;;;;41.80;27.58;;;0.80;99.90;;;;;;7370764;19;20018;-67
2024/03/08 03:51:51;;;;;;;45.65;29.00;;;0.80;99.90;;;;;;7372971;19;20026;-67
2024/03/08 03:54:17;;;;;;;36.05;24.00;;;0.80;99.90;;;;;;7369772;19;20029;-67
2024/03/08 03:56:45;;;;;;;40.17;26.08;;;0.80;99.90;;;;;;7371978;19;20841;-67
2024/03/08 03:59:11;;;;;;;38.03;26.42;;;0.80;99.90;;;;;;7375044;19;20025;-67
2024/03/08 04:01:43;;;;;;;39.17;26.30;;;0.80;99.90;;;;;;7372843;19;20018;-67
2024/03/08 04:04:09;;;;;;;34.83;23.95;;;0.80;99.90;;;;;;7372386;19;20379;-67
2024/03/08 04:06:35;;;;;;;39.92;25.95;;;0.80;99.90;;;;;;7372963;19;20029;-67
2024/03/08 04:09:01;;;;;;;34.63;24.33;;;0.80;99.90;;;;;;7371298;19;20018;-67
2024/03/08 04:11:28;;;;;;;38.95;26.48;;;0.80;99.90;;;;;;7372038;19;20018;-67
2024/03/08 04:13:55;;;;;;;39.05;26.27;;;0.80;99.90;;;;;;7374659;19;20022;-67
2024/03/08 04:16:21;;;;;;;41.70;27.00;;;0.80;99.90;;;;;;7374692;19;20382;-67
2024/03/08 04:18:47;;;;;;;37.50;26.45;;;0.80;99.90;;;;;;7376268;19;20109;-67
2024/03/08 04:21:13;;;;;;;37.00;27.33;;;0.80;99.90;;;;;;7374599;19;20047;-66
2024/03/08 04:23:40;;;;;;;34.75;25.10;;;0.80;99.90;;;;;;7372858;19;20082;-67
2024/03/08 04:26:07;;;;;;;26.20;16.70;;;0.80;99.90;;;;;;7375722;19;20082;-67
2024/03/08 04:28:37;;;;;;;38.97;26.27;;;0.80;99.90;;;;;;7371583;19;20022;-66
2024/03/08 04:31:04;;;;;;;29.48;18.15;;;0.80;99.90;;;;;;7375403;19;20025;-67
2024/03/08 04:33:30;;;;;;;35.20;26.30;;;0.80;99.90;;;;;;7375255;19;20086;-67
2024/03/08 04:35:56;;;;;;;32.15;23.67;;;0.80;99.90;;;;;;7372924;19;20034;-67
2024/03/08 04:38:24;;;;;;;37.00;24.42;;;0.80;99.90;;;;;;7373190;19;20015;-67
2024/03/08 04:40:51;;;;;;;43.30;28.25;;;0.80;99.90;;;;;;7375027;19;20014;-67
2024/03/08 04:43:18;;;;;;;36.08;25.80;;;0.80;99.90;;;;;;7375184;19;20022;-67
2024/03/08 04:45:45;;;;;;;40.42;25.95;;;0.80;99.90;;;;;;7370931;19;20102;-68
2024/03/08 04:48:11;;;;;;;35.17;25.63;;;0.80;99.90;;;;;;7373698;19;20375;-67
2024/03/08 04:50:38;;;;;;;31.73;22.83;;;0.80;99.90;;;;;;7375587;19;20699;-68
2024/03/08 04:53:07;;;;;;;38.28;24.73;;;0.80;99.90;;;;;;7370834;19;20502;-67
2024/03/08 04:55:34;;;;;;;39.05;21.25;;;0.80;99.90;;;;;;7371712;19;20601;-67
2024/03/08 04:58:01;;;;;;;33.13;21.60;;;0.70;99.90;;;;;;7374562;19;20027;-67
2024/03/08 05:00:27;;;;;;;33.60;22.95;;;0.80;99.90;;;;;;7371271;19;20134;-67
2024/03/08 05:02:53;;;;;;;31.25;22.10;;;0.80;99.90;;;;;;7371175;19;20522;-67
2024/03/08 05:05:22;;;;;;;36.42;24.23;;;0.80;99.90;;;;;;7369877;19;20031;-67
2024/03/08 05:07:49;;;;;;;35.85;21.95;;;0.70;99.90;;;;;;7371419;19;20470;-67
2024/03/08 05:10:17;;;;;;;38.40;27.15;;;0.80;99.90;;;;;;7369450;19;20017;-67
2024/03/08 05:12:45;;;;;;;35.40;26.05;;;0.70;99.90;;;;;;7369591;19;20019;-69
2024/03/08 05:15:11;;;;;;;38.20;24.77;;;0.70;99.90;;;;;;7366358;19;20030;-67
2024/03/08 05:17:40;;;;;;;34.47;25.67;;;0.70;99.90;;;;;;7368044;19;20029;-67
2024/03/08 05:20:12;;;;;;;38.65;24.70;;;0.60;99.90;;;;;;7371773;19;20019;-68
2024/03/08 05:22:38;;;;;;;35.45;25.42;;;0.60;99.90;;;;;;7370538;19;20037;-67
2024/03/08 05:25:08;;;;;;;33.45;23.70;;;0.60;99.90;;;;;;7369797;19;20036;-67
2024/03/08 05:27:35;;;;;;;38.50;25.95;;;0.60;99.90;;;;;;7366428;19;20815;-67
2024/03/08 05:30:05;;;;;;;39.95;27.63;;;0.60;99.90;;;;;;7372539;19;20067;-67
2024/03/08 05:32:32;;;;;;;40.17;27.17;;;0.50;99.90;;;;;;7369472;19;20022;-68
2024/03/08 05:34:58;;;;;;;41.13;24.13;;;0.60;99.90;;;;;;7371736;19;20023;-67
2024/03/08 05:37:24;;;;;;;41.85;28.60;;;0.50;99.90;;;;;;7374476;19;20037;-68
2024/03/08 05:39:51;;;;;;;32.22;18.48;;;0.50;99.90;;;;;;7373641;19;20498;-68
2024/03/08 05:42:17;;;;;;;37.28;27.17;;;0.50;99.90;;;;;;7373581;19;20010;-68
2024/03/08 05:44:44;;;;;;;39.63;25.83;;;0.50;99.90;;;;;;7373914;19;20022;-68
2024/03/08 05:47:10;;;;;;;37.22;25.13;;;0.50;99.90;;;;;;7375303;19;20114;-68
2024/03/08 05:49:39;;;;;;;38.28;26.33;;;0.40;99.90;;;;;;7373650;19;20018;-68
2024/03/08 05:52:05;;;;;;;39.15;25.80;;;0.40;99.90;;;;;;7373291;19;20271;-68
2024/03/08 05:54:33;;;;;;;39.00;24.75;;;0.40;99.90;;;;;;7376740;19;20018;-68
2024/03/08 05:56:59;;;;;;;39.17;26.45;;;0.40;99.90;;;;;;7376905;19;20014;-69
2024/03/08 05:59:25;;;;;;;40.75;27.05;;;0.40;99.90;;;;;;7374289;19;20371;-69
2024/03/08 06:01:51;;;;;;;33.65;21.95;;;0.40;99.90;;;;;;7381396;19;20023;-66
2024/03/08 06:04:17;;;;;;;34.00;25.58;;;0.40;99.90;;;;;;7381812;19;20026;-66
2024/03/08 06:06:44;;;;;;;41.95;25.02;;;0.30;99.90;;;;;;7378196;19;20057;-66
2024/03/08 06:09:16;;;;;;;38.22;27.10;;;0.30;99.90;;;;;;7373518;19;20407;-67
2024/03/08 06:11:43;;;;;;;38.42;27.27;;;0.30;99.90;;;;;;7380108;19;20010;-66
2024/03/08 06:14:10;;;;;;;35.80;23.80;;;0.30;99.90;;;;;;7379389;19;20617;-66
2024/03/08 06:16:36;;;;;;;46.72;28.08;;;0.40;99.90;;;;;;7376249;19;20025;-66
2024/03/08 06:19:03;;;;;;;44.22;29.17;;;0.40;99.90;;;;;;7378429;19;20479;-64
2024/03/08 06:21:29;;;;;;;39.50;27.30;;;0.50;99.90;;;;;;7376064;19;20014;-64
2024/03/08 06:23:57;;;;;;;39.92;27.88;;;0.50;99.90;;;;;;7378031;19;20018;-66
2024/03/08 06:26:25;;;;;;;39.33;25.92;;;0.40;99.90;;;;;;7379683;19;20022;-66
2024/03/08 06:28:51;;;;;;;39.03;25.17;;;0.50;99.90;;;;;;7376257;19;20018;-66
2024/03/08 06:31:17;;;;;;;40.72;27.65;;;0.50;99.90;;;;;;7379236;19;20078;-66
2024/03/08 06:33:43;;;;;;;31.98;20.45;;;0.50;99.90;;;;;;7377999;19;20097;-66
2024/03/08 06:36:11;;;;;;;30.15;20.65;;;0.60;99.90;;;;;;7380037;19;20022;-66
2024/03/08 06:38:42;;;;;;;38.15;25.60;;;0.60;99.90;;;;;;7374006;19;20022;-66
2024/03/08 06:41:17;;;;;;;41.85;25.00;;;0.60;99.90;;;;;;7382453;19;20042;-66
2024/03/08 06:43:51;;;;;;;33.92;24.40;;;0.60;99.90;;;;;;7378461;19;20859;-64
2024/03/08 06:46:18;;;;;;;40.95;29.63;;;0.70;99.90;;;;;;7381780;19;20026;-67
2024/03/08 06:48:45;;;;;;;35.92;24.80;;;0.70;99.90;;;;;;7375810;19;20029;-67
2024/03/08 06:51:12;;;;;;;39.78;24.92;;;0.70;99.90;;;;;;7381296;19;20052;-66
2024/03/08 06:53:38;;;;;;;37.85;28.20;;;0.80;99.90;;;;;;7379356;19;20029;-66
2024/03/08 06:56:07;;;;;;;29.48;21.17;;;0.80;99.90;;;;;;7377116;19;20517;-66
2024/03/08 06:58:34;;;;;;;45.35;29.25;;;0.80;99.90;;;;;;7379224;19;20247;-66
2024/03/08 07:01:03;;;;;;;27.30;17.88;;;0.90;99.90;;;;;;7381016;19;20054;-67
2024/03/08 07:03:32;;;;;;;35.90;26.77;;;0.90;99.90;;;;;;7378407;19;20015;-67
2024/03/08 07:05:58;;;;;;;35.17;26.08;;;1.00;99.90;;;;;;7380649;19;20085;-63
2024/03/08 07:08:26;;;;;;;36.80;26.55;;;1.00;99.90;;;;;;7376057;19;20542;-66
2024/03/08 07:10:58;;;;;;;34.47;24.40;;;1.10;99.90;;;;;;7374763;19;20879;-66
2024/03/08 07:13:25;;;;;;;31.90;19.95;;;1.20;99.90;;;;;;7376788;19;20018;-66
2024/03/08 07:15:52;;;;;;;37.83;26.23;;;1.30;99.90;;;;;;7379634;19;20090;-66
2024/03/08 07:18:19;;;;;;;35.88;25.75;;;1.40;99.90;;;;;;7378750;19;20058;-66
2024/03/08 07:20:45;;;;;;;30.83;19.50;;;1.50;99.90;;;;;;7373675;19;20966;-66
2024/03/08 07:23:45;;;;;;;33.90;25.00;;;1.70;99.90;;;;;;7371826;19;20537;-67
2024/03/08 07:25:58;;;;;;;31.52;20.17;;;1.80;99.90;;;;;;7370241;19;20029;-66
2024/03/08 07:28:24;;;;;;;35.25;24.13;;;1.90;99.90;;;;;;7372392;19;21856;-66
2024/03/08 07:31:02;;;;;;;32.42;24.40;;;2.10;99.90;;;;;;7374956;19;20437;-66
2024/03/08 07:33:28;;;;;;;32.88;24.40;;;2.30;99.90;;;;;;7378260;19;20018;-66
2024/03/08 07:35:56;;;;;;;32.80;24.50;;;2.50;99.90;;;;;;7377047;19;20029;-66
2024/03/08 07:38:23;;;;;;;33.00;22.88;;;2.70;99.90;;;;;;7376799;19;20879;-65
2024/03/08 07:40:50;;;;;;;32.50;21.15;;;2.80;99.90;;;;;;7373913;19;20031;-66
2024/03/08 07:43:17;;;;;;;31.77;23.52;;;3.00;99.90;;;;;;7376523;19;20053;-65
2024/03/08 07:45:43;;;;;;;31.45;24.33;;;3.20;99.90;;;;;;7372995;19;20115;-65
2024/03/08 07:48:10;;;;;;;29.83;21.35;;;3.40;99.90;;;;;;7375151;19;20054;-65
2024/03/08 07:50:38;;;;;;;31.63;23.67;;;3.60;99.90;;;;;;7372894;19;20035;-66
2024/03/08 07:53:06;;;;;;;32.45;24.75;;;3.80;99.90;;;;;;7371361;19;20766;-65
2024/03/08 07:55:34;;;;;;;31.65;24.35;;;4.00;99.90;;;;;;7375538;19;20022;-63
2024/03/08 07:58:02;;;;;;;25.85;20.92;;;4.20;99.90;;;;;;7375576;19;20718;-65
2024/03/08 08:00:31;;;;;;;29.38;23.55;;;4.60;99.90;;;;;;7370924;19;20010;-65
2024/03/08 08:02:58;;;;;;;32.00;24.40;;;4.70;99.90;;;;;;7374110;19;20018;-66
2024/03/08 08:05:24;;;;;;;30.40;22.52;;;5.00;99.90;;;;;;7375765;19;20041;-69
2024/03/08 08:07:52;;;;;;;29.50;24.00;;;5.20;99.90;;;;;;7371589;19;20018;-65
2024/03/08 08:10:22;;;;;;;30.48;26.35;;;5.30;99.90;;;;;;7369152;19;20037;-65
2024/03/08 08:12:49;;;;;;;29.55;23.17;;;5.60;99.90;;;;;;7368869;19;20036;-66
2024/03/08 08:15:15;;;;;;;27.42;23.52;;;6.00;99.90;;;;;;7373361;19;20762;-65
2024/03/08 08:17:42;;;;;;;31.73;24.88;;;6.20;99.90;;;;;;7370980;19;20018;-66
2024/03/08 08:20:12;;;;;;;28.80;23.70;;;6.40;99.90;;;;;;7372302;19;20018;-65
2024/03/08 08:22:45;;;;;;;25.50;19.33;;;6.70;99.90;;;;;;7370533;19;20030;-65
2024/03/08 08:25:15;;;;;;;30.70;21.88;;;6.80;99.90;;;;;;7373798;19;20021;-65
2024/03/08 08:27:44;;;;;;;31.02;22.52;;;6.90;99.90;;;;;;7373573;19;20015;-65
2024/03/08 08:30:11;;;;;;;32.67;26.10;;;7.10;99.90;;;;;;7369088;19;20383;-64
2024/03/08 08:32:44;;;;;;;29.77;24.45;;;7.30;99.90;;;;;;7374035;19;20030;-65
2024/03/08 08:35:12;;;;;;;33.35;25.17;;;7.70;99.90;;;;;;7372120;19;20328;-65
2024/03/08 08:37:41;;;;;;;35.45;26.13;;;7.70;99.90;;;;;;7369866;19;20099;-65
2024/03/08 08:40:10;;;;;;;23.27;17.85;;;7.90;99.90;;;;;;7370239;19;20011;-64
2024/03/08 08:42:39;;;;;;;26.02;20.38;;;7.90;99.90;;;;;;7371014;19;20033;-64
2024/03/08 08:45:09;;;;;;;27.20;21.77;;;8.20;99.90;;;;;;7372356;19;20038;-64
2024/03/08 08:47:36;;;;;;;27.60;22.63;;;8.10;99.90;;;;;;7371563;19;20082;-63
2024/03/08 08:50:04;;;;;;;29.75;25.42;;;8.30;99.90;;;;;;7372597;19;20035;-63
2024/03/08 08:52:34;;;;;;;35.88;29.65;;;8.40;99.90;;;;;;7368115;19;20043;-63
2024/03/08 08:55:03;;;;;;;26.52;21.13;;;8.40;99.90;;;;;;7374628;19;20380;-64
2024/03/08 08:57:32;;;;;;;32.92;26.73;;;8.20;99.90;;;;;;7374543;19;20022;-64
2024/03/08 09:00:00;;;;;;;28.23;24.10;;;8.50;99.90;;;;;;7368699;19;20772;-64
2024/03/08 09:02:27;;;;;;;25.23;18.80;;;8.70;99.90;;;;;;7370947;19;20014;-64
2024/03/08 09:04:53;;;;;;;26.85;23.38;;;8.70;99.90;;;;;;7370165;19;20039;-64
2024/03/08 09:07:19;;;;;;;32.05;28.25;;;8.80;99.90;;;;;;7370066;19;20442;-64
2024/03/08 09:09:45;;;;;;;30.13;24.45;;;9.00;99.90;;;;;;7367578;19;20145;-63
2024/03/08 09:12:14;;;;;;;27.13;23.27;;;8.90;99.20;;;;;;7370169;19;20018;-64
2024/03/08 09:14:41;;;;;;;30.40;25.45;;;8.90;99.90;;;;;;7364921;19;20463;-64
2024/03/08 09:17:08;;;;;;;27.23;21.80;;;9.00;99.90;;;;;;7370457;19;20484;-65
2024/03/08 09:19:36;;;;;;;27.98;24.23;;;9.20;99.90;;;;;;7365412;19;20047;-63
2024/03/08 09:22:04;;;;;;;33.58;25.10;;;9.50;99.90;;;;;;7369019;19;20483;-64
2024/03/08 09:24:34;;;;;;;29.67;22.55;;;9.00;98.50;;;;;;7367532;19;20023;-64
2024/03/08 09:27:00;;;;;;;28.67;25.35;;;9.60;99.90;;;;;;7372337;19;20033;-63
2024/03/08 09:29:27;;;;;;;29.52;23.95;;;9.80;99.60;;;;;;7366812;19;20022;-65
2024/03/08 09:31:53;;;;;;;28.50;23.15;;;10.10;98.70;;;;;;7363689;19;20022;-65
2024/03/08 09:34:19;;;;;;;29.20;26.00;;;9.80;97.10;;;;;;7362959;19;20018;-62
2024/03/08 09:36:45;;;;;;;28.08;24.58;;;10.30;97.60;;;;;;7367153;19;20019;-65
2024/03/08 09:39:16;;;;;;;26.40;23.60;;;10.40;97.40;;;;;;7366608;19;20018;-62
2024/03/08 09:41:43;;;;;;;27.27;23.45;;;10.60;96.90;;;;;;7367273;19;20022;-65
2024/03/08 09:44:10;;;;;;;27.98;24.85;;;10.40;95.30;;;;;;7370041;19;20054;-65
2024/03/08 09:46:37;;;;;;;30.17;24.63;;;10.60;96.70;;;;;;7364577;19;20037;-64
2024/03/08 09:49:05;;;;;;;28.95;25.35;;;10.80;95.30;;;;;;7369601;19;20027;-62
2024/03/08 09:51:37;;;;;;;27.85;24.17;;;10.70;95.60;;;;;;7362047;19;20046;-62
2024/03/08 09:54:06;;;;;;;;;;;10.50;94.80;;;;;;7365405;19;20153;-62
2024/03/08 09:56:36;;;;;;;28.83;25.73;;;10.40;94.30;;;;;;7364741;19;19930;-62
2024/03/08 10:01:32;;;;;;;28.80;25.02;;;11.10;94.80;;;;;;7364313;19;20019;-62
2024/03/08 10:03:58;;;;;;;27.27;24.33;;;11.20;94.50;;;;;;7362460;19;20516;-62
2024/03/08 10:06:24;;;;;;;31.15;25.55;;;10.90;94.80;;;;;;7366802;19;20094;-64
2024/03/08 10:08:55;;;;;;;29.75;25.65;;;11.50;94.30;;;;;;7367677;19;20320;-62
2024/03/08 10:11:21;;;;;;;28.92;24.27;;;11.60;94.00;;;;;;7366380;19;20022;-62
2024/03/08 10:13:50;;;;;;;27.65;22.80;;;12.10;93.60;;;;;;7369858;19;20538;-62
2024/03/08 10:16:19;;;;;;;27.90;24.85;;;12.40;93.40;;;;;;7366543;19;20770;-69
2024/03/08 10:18:46;;;;;;;29.20;25.05;;;12.70;92.90;;;;;;7371636;19;20018;-63
2024/03/08 10:21:15;;;;;;;27.70;23.70;;;12.30;92.50;;;;;;7366246;19;20018;-64
2024/03/08 10:23:44;;;;;;;27.65;24.65;;;12.70;91.40;;;;;;7365805;19;20045;-64
2024/03/08 10:26:20;;;;;;;26.38;23.45;;;12.80;92.10;;;;;;7368502;19;20018;-64
2024/03/08 10:28:51;;;;;;;24.90;20.95;;;12.70;90.90;;;;;;7368254;19;20011;-65
2024/03/08 10:31:19;;;;;;;32.08;26.77;;;13.10;91.60;;;;;;7369124;19;20056;-64
2024/03/08 10:33:46;;;;;;;29.70;26.52;;;13.00;90.60;;;;;;7369394;19;20479;-63
2024/03/08 10:36:14;;;;;;;33.58;29.92;;;12.80;91.10;;;;;;7367050;19;20697;-62
2024/03/08 10:38:43;;;;;;;25.33;22.70;;;13.20;90.40;;;;;;7364990;19;20098;-63
2024/03/08 10:41:10;;;;;;;27.45;20.40;;;12.90;88.80;;;;;;7370881;19;20053;-64
2024/03/08 10:43:55;;;;;;;27.83;25.02;;;12.90;89.60;;;;;;7363949;19;20295;-62
2024/03/08 10:46:58;;;;;;;23.63;20.30;;;13.00;90.30;;;;;;7374357;19;20031;-61
2024/03/08 10:49:34;;;;;;;29.85;25.27;;;12.90;88.60;;;;;;7367239;19;20383;-64
2024/03/08 10:52:05;;;;;;;27.67;23.30;;;13.30;89.00;;;;;;7373265;19;20034;-63
2024/03/08 10:54:33;;;;;;;27.17;24.38;;;13.40;87.70;;;;;;7373489;19;20014;-66
2024/03/08 10:57:05;;;;;;;28.98;25.98;;;13.40;88.90;;;;;;7373065;19;20360;-62
2024/03/08 10:59:33;;;;;;;28.02;22.67;;;13.80;89.70;;;;;;7374227;19;20025;-62
2024/03/08 11:02:01;;;;;;;26.80;23.90;;;14.00;88.40;;;;;;7372250;19;20018;-62
2024/03/08 11:04:29;;;;;;;26.90;24.15;;;14.20;88.00;;;;;;7375806;19;20018;-62
2024/03/08 11:07:06;;;;;;;30.40;26.60;;;14.50;88.80;;;;;;7367236;19;20026;-62
2024/03/08 11:09:37;;;;;;;29.80;26.65;;;14.00;86.60;;;;;;7365814;19;20018;-62
2024/03/08 11:12:29;;;;;;;28.67;25.55;;;14.70;87.30;;;;;;7364324;19;20719;-62
2024/03/08 11:15:18;;;;;;;24.95;22.33;;;14.10;83.00;;;;;;7370507;19;20795;-62
2024/03/08 11:17:49;;;;;;;26.52;23.73;;;14.50;83.50;;;;;;7365315;19;20022;-61
2024/03/08 11:20:20;;;;;;;25.83;23.02;;;14.40;84.90;;;;;;7370172;19;20018;-60
2024/03/08 11:23:05;;;;;;;27.98;23.33;;;14.20;82.90;;;;;;7375781;19;20014;-61
2024/03/08 11:25:45;;;;;;;26.27;23.48;;;14.40;82.60;;;;;;7370112;19;20045;-60
2024/03/08 11:28:18;;;;;;;26.02;23.38;;;14.50;82.50;;;;;;7371131;19;20775;-63
2024/03/08 11:30:58;;;;;;;25.52;22.13;;;15.40;84.30;;;;;;7370642;19;20018;-63
2024/03/08 11:33:28;;;;;;;26.80;23.80;;;15.30;82.30;;;;;;7366805;19;20435;-63
2024/03/08 11:36:22;;;;;;;26.48;22.83;;;15.60;81.00;;;;;;7367185;19;20026;-62
2024/03/08 11:38:51;;;;;;;26.50;23.15;;;15.80;80.00;;;;;;7372240;19;20490;-63
2024/03/08 11:41:22;;;;;;;26.48;23.75;;;15.60;78.60;;;;;;7369714;19;20655;-63
2024/03/08 11:44:01;;;;;;;25.98;22.70;;;15.40;78.60;;;;;;7369980;19;20058;-63
2024/03/08 11:46:28;;;;;;;29.63;26.52;;;15.20;78.00;;;;;;7366589;19;20014;-61
2024/03/08 11:48:56;;;;;;;25.25;22.63;;;15.30;78.00;;;;;;7368807;19;20022;-60
2024/03/08 11:51:23;;;;;;;26.75;23.63;;;15.60;79.10;;;;;;7369300;19;20018;-61
2024/03/08 11:53:50;;;;;;;24.88;22.27;;;15.70;77.70;;;;;;7373760;19;20611;-61
2024/03/08 11:56:16;;;;;;;25.52;22.88;;;16.20;77.80;;;;;;7358373;19;20713;-62
2024/03/08 11:58:57;;;;;;;26.73;23.92;;;16.20;77.60;;;;;;7364132;19;20366;-59
2024/03/08 12:01:24;;;;;;;25.90;23.10;;;15.60;76.20;;;;;;7360608;19;21133;-60
2024/03/08 12:03:58;;;;;;;124.60;110.78;;;15.40;74.00;;;;;;7369499;19;20532;-63
2024/03/08 12:06:26;;;;;;;28.27;25.15;;;15.60;79.50;;;;;;7377894;19;20851;-62
2024/03/08 12:08:53;;;;;;;26.42;23.40;;;15.90;76.20;;;;;;7371738;19;20018;-61
2024/03/08 12:11:23;;;;;;;24.10;21.60;;;15.90;75.60;;;;;;7368658;19;20041;-61
2024/03/08 12:13:53;;;;;;;36.85;32.90;;;15.90;72.70;;;;;;7370883;19;20413;-61
2024/03/08 12:16:23;;;;;;;25.13;22.48;;;16.40;74.10;;;;;;7365574;19;20023;-61
2024/03/08 12:18:51;;;;;;;23.80;19.63;;;16.10;73.20;;;;;;7366605;19;20343;-61
2024/03/08 12:21:20;;;;;;;25.83;23.02;;;15.80;70.30;;;;;;7375189;19;20022;-61
2024/03/08 12:24:02;;;;;;;32.45;29.00;;;16.50;72.90;;;;;;7366503;19;20109;-61
2024/03/08 12:26:29;;;;;;;26.83;23.92;;;16.20;71.60;;;;;;7372374;19;20026;-61
2024/03/08 12:29:16;;;;;;;29.20;26.10;;;16.20;70.20;;;;;;7362593;19;20105;-62
2024/03/08 12:31:42;;;;;;;26.58;23.70;;;16.20;71.90;;;;;;7366966;19;20015;-61
2024/03/08 12:34:09;;;;;;;28.13;25.15;;;16.60;70.70;;;;;;7369402;19;20019;-62
2024/03/08 12:36:37;;;;;;;25.83;22.20;;;16.60;69.20;;;;;;7369187;19;20022;-61
2024/03/08 12:39:03;;;;;;;23.55;19.80;;;16.60;68.00;;;;;;7369276;19;20023;-63
2024/03/08 12:41:30;;;;;;;28.25;25.10;;;16.80;64.30;;;;;;7370692;19;20813;-63
2024/03/08 12:43:56;;;;;;;27.02;24.23;;;16.80;66.50;;;;;;7367770;19;20672;-65